AWQ666 WIII-WAMM
Flight info
| Callsign | AWQ666 |
|---|---|
| Flight time | N/A |
| Altitude | 37000 |
| Route | EGUKO2A/07L N0448F370 EGUK2D EGUKO T9 ARITO ARIT1D WAMM/36 |
| Aircraft | A320/M-SDE2E3FGHIRWXY/LB1 |
Departure
| Time | N/A |
|---|---|
| Airport | Soekarno-Hatta International Airport (WIII) |
Arrival
| Time | 2026-04-14 05:25 |
|---|---|
| Airport | Sam Ratulangi International Airport (WAMM) |
| Time | Latitude | Longitude | Altitude | Speed | Heading |
|---|---|---|---|---|---|
| 2026-04-14 02:52 | -4.75007 | 108.75562 | 34591 ft | 461 kts | 59° |
| 2026-04-14 02:53 | -4.73274 | 108.78285 | 34790 ft | 461 kts | 59° |
| 2026-04-14 02:53 | -4.71563 | 108.80995 | 34957 ft | 460 kts | 62° |
| 2026-04-14 02:53 | -4.70112 | 108.83846 | 35135 ft | 459 kts | 66° |
| 2026-04-14 02:53 | -4.68742 | 108.86739 | 35299 ft | 459 kts | 65° |
| 2026-04-14 02:54 | -4.67374 | 108.89626 | 35474 ft | 458 kts | 66° |
| 2026-04-14 02:54 | -4.66469 | 108.91537 | 35578 ft | 458 kts | 66° |
| 2026-04-14 02:55 | -4.65066 | 108.94494 | 35710 ft | 458 kts | 65° |
| 2026-04-14 02:55 | -4.63690 | 108.97378 | 35893 ft | 458 kts | 65° |
| 2026-04-14 02:55 | -4.62316 | 109.00250 | 36057 ft | 457 kts | 65° |
| 2026-04-14 02:55 | -4.60944 | 109.03124 | 36217 ft | 457 kts | 65° |
| 2026-04-14 02:56 | -4.59580 | 109.05995 | 36376 ft | 456 kts | 66° |
| 2026-04-14 02:56 | -4.58217 | 109.08867 | 36534 ft | 456 kts | 65° |
| 2026-04-14 02:56 | -4.56858 | 109.11730 | 36677 ft | 455 kts | 65° |
| 2026-04-14 02:56 | -4.55494 | 109.14597 | 36838 ft | 454 kts | 65° |
| 2026-04-14 02:57 | -4.54134 | 109.17451 | 36934 ft | 455 kts | 65° |
| 2026-04-14 02:57 | -4.51428 | 109.23136 | 36948 ft | 454 kts | 65° |
| 2026-04-14 02:58 | -4.48709 | 109.28842 | 36950 ft | 454 kts | 65° |
| 2026-04-14 02:58 | -4.45985 | 109.34552 | 36948 ft | 454 kts | 65° |
| 2026-04-14 02:59 | -4.43260 | 109.40251 | 36946 ft | 453 kts | 65° |
| 2026-04-14 02:59 | -4.40547 | 109.45955 | 36948 ft | 453 kts | 66° |
| 2026-04-14 03:00 | -4.37843 | 109.51658 | 36947 ft | 453 kts | 66° |
| 2026-04-14 03:00 | -4.35128 | 109.57360 | 36943 ft | 453 kts | 65° |
| 2026-04-14 03:01 | -4.32432 | 109.63009 | 36952 ft | 452 kts | 65° |
| 2026-04-14 03:01 | -4.29714 | 109.68694 | 36954 ft | 453 kts | 65° |
| 2026-04-14 03:02 | -4.26991 | 109.74387 | 36948 ft | 453 kts | 65° |
| 2026-04-14 03:02 | -4.24275 | 109.80079 | 36948 ft | 453 kts | 65° |
| 2026-04-14 03:03 | -4.21554 | 109.85778 | 36947 ft | 453 kts | 65° |
| 2026-04-14 03:03 | -4.18840 | 109.91476 | 36948 ft | 453 kts | 65° |
| 2026-04-14 03:04 | -4.16119 | 109.97172 | 36948 ft | 454 kts | 65° |
| 2026-04-14 03:04 | -4.13392 | 110.02877 | 36944 ft | 454 kts | 65° |
| 2026-04-14 03:05 | -4.10662 | 110.08587 | 36945 ft | 454 kts | 65° |
| 2026-04-14 03:05 | -4.07954 | 110.14260 | 36946 ft | 455 kts | 65° |
| 2026-04-14 03:06 | -4.05228 | 110.19979 | 36944 ft | 455 kts | 65° |
| 2026-04-14 03:06 | -4.02489 | 110.25701 | 36945 ft | 456 kts | 65° |
| 2026-04-14 03:07 | -3.99742 | 110.31432 | 36945 ft | 457 kts | 65° |
| 2026-04-14 03:07 | -3.96999 | 110.37167 | 36945 ft | 457 kts | 65° |
| 2026-04-14 03:08 | -3.94260 | 110.42905 | 36944 ft | 457 kts | 65° |
| 2026-04-14 03:08 | -3.91529 | 110.48611 | 36943 ft | 457 kts | 65° |
| 2026-04-14 03:09 | -3.88779 | 110.54350 | 36944 ft | 457 kts | 65° |
| 2026-04-14 03:09 | -3.86031 | 110.60086 | 36947 ft | 457 kts | 65° |
| 2026-04-14 03:10 | -3.83287 | 110.65826 | 36946 ft | 457 kts | 65° |
| 2026-04-14 03:10 | -3.80534 | 110.71558 | 36944 ft | 457 kts | 64° |
| 2026-04-14 03:11 | -3.77785 | 110.77291 | 36946 ft | 457 kts | 65° |
| 2026-04-14 03:11 | -3.75045 | 110.83030 | 36944 ft | 457 kts | 64° |
| 2026-04-14 03:12 | -3.72295 | 110.88766 | 36947 ft | 457 kts | 64° |
| 2026-04-14 03:12 | -3.69560 | 110.94460 | 36943 ft | 457 kts | 64° |
| 2026-04-14 03:13 | -3.66808 | 111.00195 | 36942 ft | 457 kts | 64° |
| 2026-04-14 03:13 | -3.64059 | 111.05930 | 36945 ft | 457 kts | 64° |
| 2026-04-14 03:14 | -3.61304 | 111.11671 | 36944 ft | 457 kts | 64° |
| 2026-04-14 03:14 | -3.58554 | 111.17413 | 36941 ft | 458 kts | 64° |
| 2026-04-14 03:15 | -3.55795 | 111.23162 | 36941 ft | 458 kts | 64° |
| 2026-04-14 03:15 | -3.53039 | 111.28913 | 36941 ft | 458 kts | 64° |
| 2026-04-14 03:16 | -3.50268 | 111.34673 | 36940 ft | 459 kts | 64° |
| 2026-04-14 03:16 | -3.47524 | 111.40393 | 36942 ft | 459 kts | 64° |
| 2026-04-14 03:17 | -3.44759 | 111.46155 | 36940 ft | 459 kts | 64° |
| 2026-04-14 03:17 | -3.40606 | 111.54803 | 36940 ft | 460 kts | 64° |
| 2026-04-14 03:18 | -3.37835 | 111.60578 | 36941 ft | 460 kts | 64° |
| 2026-04-14 03:18 | -3.35050 | 111.66352 | 36935 ft | 461 kts | 64° |
| 2026-04-14 03:19 | -3.32268 | 111.72137 | 36938 ft | 461 kts | 64° |
| 2026-04-14 03:19 | -3.29489 | 111.77928 | 36940 ft | 462 kts | 64° |
| 2026-04-14 03:20 | -3.26703 | 111.83735 | 36936 ft | 462 kts | 64° |
| 2026-04-14 03:20 | -3.23915 | 111.89540 | 36936 ft | 463 kts | 64° |
| 2026-04-14 03:21 | -3.21141 | 111.95299 | 36938 ft | 462 kts | 64° |
| 2026-04-14 03:21 | -3.18350 | 112.01101 | 36934 ft | 463 kts | 64° |
| 2026-04-14 03:22 | -3.15561 | 112.06907 | 36932 ft | 463 kts | 64° |
| 2026-04-14 03:22 | -3.12764 | 112.12714 | 36934 ft | 463 kts | 64° |
| 2026-04-14 03:23 | -3.09963 | 112.18520 | 36935 ft | 463 kts | 64° |
| 2026-04-14 03:23 | -3.07167 | 112.24330 | 36933 ft | 463 kts | 64° |
| 2026-04-14 03:24 | -3.04376 | 112.30136 | 36935 ft | 463 kts | 64° |
| 2026-04-14 03:24 | -3.01804 | 112.36035 | 36933 ft | 463 kts | 68° |
| 2026-04-14 03:25 | -2.99513 | 112.42064 | 36934 ft | 463 kts | 69° |
| 2026-04-14 03:25 | -2.97235 | 112.48098 | 36932 ft | 464 kts | 69° |
| 2026-04-14 03:26 | -2.94893 | 112.54069 | 36933 ft | 464 kts | 68° |
| 2026-04-14 03:26 | -2.92500 | 112.60065 | 36928 ft | 464 kts | 68° |
| 2026-04-14 03:27 | -2.90114 | 112.66063 | 36929 ft | 464 kts | 68° |
| 2026-04-14 03:27 | -2.88138 | 112.71064 | 36929 ft | 464 kts | 68° |
| 2026-04-14 03:28 | -2.85766 | 112.77078 | 36927 ft | 465 kts | 68° |
| 2026-04-14 03:28 | -2.83389 | 112.83093 | 36926 ft | 465 kts | 68° |
| 2026-04-14 03:29 | -2.81000 | 112.89103 | 36924 ft | 465 kts | 68° |
| 2026-04-14 03:29 | -2.78613 | 112.95119 | 36921 ft | 465 kts | 68° |
| 2026-04-14 03:30 | -2.76235 | 113.01135 | 36923 ft | 465 kts | 68° |
| 2026-04-14 03:30 | -2.73875 | 113.07116 | 36923 ft | 466 kts | 68° |
| 2026-04-14 03:31 | -2.71494 | 113.13139 | 36921 ft | 466 kts | 68° |
| 2026-04-14 03:31 | -2.69106 | 113.19158 | 36923 ft | 466 kts | 68° |
| 2026-04-14 03:32 | -2.66715 | 113.25182 | 36922 ft | 466 kts | 68° |
| 2026-04-14 03:32 | -2.64333 | 113.31212 | 36920 ft | 466 kts | 68° |
| 2026-04-14 03:33 | -2.61947 | 113.37236 | 36917 ft | 466 kts | 68° |
| 2026-04-14 03:33 | -2.59044 | 113.43012 | 36918 ft | 466 kts | 56° |
| 2026-04-14 03:34 | -2.53695 | 113.51126 | 36916 ft | 466 kts | 56° |
| 2026-04-14 03:35 | -2.50131 | 113.56542 | 36914 ft | 466 kts | 56° |
| 2026-04-14 03:35 | -2.46577 | 113.61965 | 36916 ft | 466 kts | 56° |
| 2026-04-14 03:36 | -2.43021 | 113.67387 | 36915 ft | 466 kts | 56° |
| 2026-04-14 03:36 | -2.39458 | 113.72797 | 36910 ft | 466 kts | 56° |
| 2026-04-14 03:37 | -2.35920 | 113.78178 | 36912 ft | 466 kts | 56° |
| 2026-04-14 03:37 | -2.32364 | 113.83599 | 36913 ft | 466 kts | 56° |
| 2026-04-14 03:38 | -2.28801 | 113.89021 | 36915 ft | 466 kts | 56° |
| 2026-04-14 03:38 | -2.25254 | 113.94456 | 36913 ft | 467 kts | 59° |
| 2026-04-14 03:39 | -2.22498 | 114.00338 | 36914 ft | 468 kts | 66° |
| 2026-04-14 03:39 | -2.19891 | 114.06292 | 36910 ft | 468 kts | 66° |
| 2026-04-14 03:40 | -2.17272 | 114.12244 | 36909 ft | 468 kts | 66° |
| 2026-04-14 03:40 | -2.14649 | 114.18199 | 36911 ft | 468 kts | 66° |
| 2026-04-14 03:41 | -2.12049 | 114.24120 | 36906 ft | 468 kts | 66° |
| 2026-04-14 03:41 | -2.09439 | 114.30076 | 36907 ft | 468 kts | 66° |
| 2026-04-14 03:42 | -2.06826 | 114.36034 | 36907 ft | 468 kts | 66° |
| 2026-04-14 03:42 | -2.04207 | 114.41984 | 36907 ft | 468 kts | 66° |
| 2026-04-14 03:43 | -2.01590 | 114.47932 | 36911 ft | 467 kts | 66° |
| 2026-04-14 03:43 | -1.98977 | 114.53880 | 36908 ft | 467 kts | 66° |
| 2026-04-14 03:44 | -1.96360 | 114.59825 | 36907 ft | 467 kts | 66° |
| 2026-04-14 03:44 | -1.93742 | 114.65776 | 36906 ft | 467 kts | 66° |
| 2026-04-14 03:45 | -1.91147 | 114.71684 | 36910 ft | 467 kts | 66° |
| 2026-04-14 03:45 | -1.88535 | 114.77623 | 36911 ft | 466 kts | 66° |
| 2026-04-14 03:46 | -1.85926 | 114.83558 | 36912 ft | 466 kts | 66° |
| 2026-04-14 03:46 | -1.83322 | 114.89487 | 36911 ft | 466 kts | 66° |
| 2026-04-14 03:47 | -1.80716 | 114.95416 | 36913 ft | 466 kts | 66° |
| 2026-04-14 03:47 | -1.78106 | 115.01343 | 36911 ft | 466 kts | 66° |
| 2026-04-14 03:48 | -1.75501 | 115.07263 | 36910 ft | 466 kts | 66° |
| 2026-04-14 03:48 | -1.72907 | 115.13157 | 36916 ft | 466 kts | 66° |
| 2026-04-14 03:49 | -1.70302 | 115.19083 | 36914 ft | 466 kts | 66° |
| 2026-04-14 03:49 | -1.67707 | 115.25022 | 36918 ft | 466 kts | 66° |
| 2026-04-14 03:50 | -1.65238 | 115.31011 | 36919 ft | 466 kts | 68° |
| 2026-04-14 03:50 | -1.62824 | 115.37019 | 36918 ft | 466 kts | 67° |
| 2026-04-14 03:51 | -1.60382 | 115.43015 | 36923 ft | 466 kts | 67° |
| 2026-04-14 03:51 | -1.57918 | 115.49004 | 36925 ft | 466 kts | 67° |
| 2026-04-14 03:52 | -1.55450 | 115.54992 | 36925 ft | 466 kts | 67° |
| 2026-04-14 03:52 | -1.52984 | 115.60989 | 36927 ft | 466 kts | 67° |
| 2026-04-14 03:53 | -1.50531 | 115.66988 | 36931 ft | 466 kts | 67° |
| 2026-04-14 03:53 | -1.48087 | 115.72946 | 36929 ft | 466 kts | 67° |
| 2026-04-14 03:54 | -1.45606 | 115.78979 | 36931 ft | 466 kts | 67° |
| 2026-04-14 03:54 | -1.43161 | 115.84931 | 36931 ft | 466 kts | 67° |
| 2026-04-14 03:55 | -1.40693 | 115.90924 | 36932 ft | 466 kts | 67° |
| 2026-04-14 03:55 | -1.38233 | 115.96914 | 36927 ft | 466 kts | 67° |
| 2026-04-14 03:56 | -1.35772 | 116.02906 | 36926 ft | 466 kts | 67° |
| 2026-04-14 03:56 | -1.33304 | 116.08897 | 36929 ft | 466 kts | 67° |
| 2026-04-14 03:57 | -1.30842 | 116.14891 | 36928 ft | 466 kts | 67° |
| 2026-04-14 03:57 | -1.28387 | 116.20882 | 36926 ft | 466 kts | 67° |
| 2026-04-14 03:58 | -1.25930 | 116.26865 | 36927 ft | 465 kts | 67° |
| 2026-04-14 03:58 | -1.23468 | 116.32845 | 36927 ft | 465 kts | 67° |
| 2026-04-14 03:59 | -1.21003 | 116.38827 | 36926 ft | 465 kts | 67° |
| 2026-04-14 03:59 | -1.18560 | 116.44768 | 36925 ft | 465 kts | 67° |
| 2026-04-14 04:00 | -1.16107 | 116.50745 | 36925 ft | 465 kts | 67° |
| 2026-04-14 04:00 | -1.13643 | 116.56727 | 36918 ft | 465 kts | 67° |
| 2026-04-14 04:01 | -1.11184 | 116.62709 | 36924 ft | 465 kts | 67° |
| 2026-04-14 04:01 | -1.08728 | 116.68691 | 36930 ft | 465 kts | 67° |
| 2026-04-14 04:02 | -1.06274 | 116.74668 | 36922 ft | 465 kts | 67° |
| 2026-04-14 04:02 | -1.03815 | 116.80646 | 36920 ft | 465 kts | 67° |
| 2026-04-14 04:03 | -1.01354 | 116.86622 | 36921 ft | 465 kts | 67° |
| 2026-04-14 04:03 | -0.98892 | 116.92598 | 36918 ft | 465 kts | 67° |
| 2026-04-14 04:04 | -0.96449 | 116.98532 | 36919 ft | 465 kts | 67° |
| 2026-04-14 04:04 | -0.93994 | 117.04518 | 36918 ft | 465 kts | 67° |
| 2026-04-14 04:05 | -0.91538 | 117.10496 | 36919 ft | 465 kts | 67° |
| 2026-04-14 04:05 | -0.89078 | 117.16473 | 36920 ft | 465 kts | 67° |
| 2026-04-14 04:06 | -0.86621 | 117.22450 | 36917 ft | 465 kts | 67° |
| 2026-04-14 04:06 | -0.84167 | 117.28427 | 36914 ft | 465 kts | 67° |
| 2026-04-14 04:07 | -0.81716 | 117.34401 | 36920 ft | 465 kts | 67° |
| 2026-04-14 04:07 | -0.79260 | 117.40376 | 36918 ft | 465 kts | 67° |
| 2026-04-14 04:08 | -0.76803 | 117.46348 | 36915 ft | 465 kts | 68° |
| 2026-04-14 04:08 | -0.74367 | 117.52278 | 36916 ft | 464 kts | 68° |
| 2026-04-14 04:09 | -0.71919 | 117.58249 | 36918 ft | 464 kts | 68° |
| 2026-04-14 04:09 | -0.69465 | 117.64215 | 36922 ft | 464 kts | 68° |
| 2026-04-14 04:10 | -0.67011 | 117.70177 | 36919 ft | 464 kts | 68° |
| 2026-04-14 04:10 | -0.64560 | 117.76137 | 36923 ft | 464 kts | 68° |
| 2026-04-14 04:11 | -0.62112 | 117.82102 | 36922 ft | 464 kts | 68° |
| 2026-04-14 04:11 | -0.59662 | 117.88062 | 36922 ft | 464 kts | 68° |
| 2026-04-14 04:12 | -0.57209 | 117.94016 | 36923 ft | 464 kts | 67° |
| 2026-04-14 04:12 | -0.54761 | 117.99979 | 36923 ft | 464 kts | 67° |
| 2026-04-14 04:13 | -0.52317 | 118.05943 | 36923 ft | 463 kts | 67° |
| 2026-04-14 04:13 | -0.49888 | 118.11860 | 36923 ft | 463 kts | 67° |
| 2026-04-14 04:14 | -0.47439 | 118.17811 | 36924 ft | 464 kts | 67° |
| 2026-04-14 04:14 | -0.44986 | 118.23770 | 36924 ft | 464 kts | 67° |
| 2026-04-14 04:15 | -0.42533 | 118.29728 | 36925 ft | 464 kts | 67° |
| 2026-04-14 04:15 | -0.40086 | 118.35687 | 36923 ft | 464 kts | 67° |
| 2026-04-14 04:16 | -0.37625 | 118.41650 | 36921 ft | 464 kts | 67° |
| 2026-04-14 04:16 | -0.35224 | 118.47634 | 36924 ft | 464 kts | 69° |
| 2026-04-14 04:17 | -0.33026 | 118.53644 | 36924 ft | 463 kts | 70° |
| 2026-04-14 04:17 | -0.30855 | 118.59713 | 36923 ft | 464 kts | 70° |
| 2026-04-14 04:18 | -0.28645 | 118.65762 | 36921 ft | 464 kts | 69° |
| 2026-04-14 04:18 | -0.26405 | 118.71810 | 36920 ft | 464 kts | 69° |
| 2026-04-14 04:19 | -0.24173 | 118.77851 | 36921 ft | 464 kts | 69° |
| 2026-04-14 04:19 | -0.21947 | 118.83894 | 36919 ft | 463 kts | 69° |
| 2026-04-14 04:20 | -0.19737 | 118.89894 | 36922 ft | 463 kts | 69° |
| 2026-04-14 04:20 | -0.17513 | 118.95926 | 36917 ft | 463 kts | 69° |
| 2026-04-14 04:21 | -0.15287 | 119.01966 | 36918 ft | 463 kts | 69° |
| 2026-04-14 04:21 | -0.13062 | 119.08000 | 36915 ft | 463 kts | 69° |
| 2026-04-14 04:22 | -0.10836 | 119.14032 | 36917 ft | 462 kts | 69° |
| 2026-04-14 04:22 | -0.08612 | 119.20062 | 36915 ft | 462 kts | 69° |
| 2026-04-14 04:23 | -0.06400 | 119.26090 | 36915 ft | 462 kts | 69° |
| 2026-04-14 04:23 | -0.04554 | 119.31091 | 36916 ft | 461 kts | 69° |
| 2026-04-14 04:24 | -0.02333 | 119.37105 | 36916 ft | 461 kts | 69° |
| 2026-04-14 04:24 | -0.00119 | 119.43115 | 36916 ft | 461 kts | 69° |
| 2026-04-14 04:25 | 0.02093 | 119.49128 | 36919 ft | 461 kts | 69° |
| 2026-04-14 04:25 | 0.04138 | 119.55197 | 36915 ft | 461 kts | 73° |
| 2026-04-14 04:26 | 0.05783 | 119.61394 | 36920 ft | 462 kts | 75° |
| 2026-04-14 04:26 | 0.07357 | 119.67614 | 36923 ft | 461 kts | 74° |
| 2026-04-14 04:27 | 0.09008 | 119.73766 | 36919 ft | 461 kts | 73° |
| 2026-04-14 04:27 | 0.10729 | 119.79947 | 36923 ft | 462 kts | 73° |
| 2026-04-14 04:28 | 0.12446 | 119.86139 | 36922 ft | 463 kts | 73° |
| 2026-04-14 04:28 | 0.14156 | 119.92350 | 36927 ft | 464 kts | 73° |
| 2026-04-14 04:29 | 0.15860 | 119.98568 | 36923 ft | 464 kts | 74° |
| 2026-04-14 04:29 | 0.17569 | 120.04795 | 36931 ft | 465 kts | 73° |
| 2026-04-14 04:30 | 0.19275 | 120.11022 | 36928 ft | 465 kts | 73° |
| 2026-04-14 04:30 | 0.20984 | 120.17258 | 36930 ft | 465 kts | 73° |
| 2026-04-14 04:31 | 0.22695 | 120.23491 | 36931 ft | 465 kts | 74° |
| 2026-04-14 04:31 | 0.25252 | 120.32806 | 36933 ft | 465 kts | 74° |
| 2026-04-14 04:32 | 0.26963 | 120.39045 | 36931 ft | 465 kts | 74° |
| 2026-04-14 04:32 | 0.28674 | 120.45278 | 36929 ft | 465 kts | 74° |
| 2026-04-14 04:33 | 0.30386 | 120.51511 | 36929 ft | 465 kts | 74° |
| 2026-04-14 04:33 | 0.32097 | 120.57748 | 36928 ft | 466 kts | 74° |
| 2026-04-14 04:34 | 0.33815 | 120.63986 | 36925 ft | 466 kts | 74° |
| 2026-04-14 04:34 | 0.35524 | 120.70224 | 36928 ft | 466 kts | 74° |
| 2026-04-14 04:35 | 0.37231 | 120.76467 | 36927 ft | 465 kts | 74° |
| 2026-04-14 04:35 | 0.38941 | 120.82702 | 36926 ft | 465 kts | 74° |
| 2026-04-14 04:36 | 0.40641 | 120.88887 | 36928 ft | 465 kts | 74° |
| 2026-04-14 04:36 | 0.42345 | 120.95108 | 36928 ft | 464 kts | 74° |
| 2026-04-14 04:37 | 0.44058 | 121.01347 | 36922 ft | 466 kts | 75° |
| 2026-04-14 04:37 | 0.45777 | 121.07598 | 36929 ft | 466 kts | 75° |
| 2026-04-14 04:38 | 0.47494 | 121.13845 | 36933 ft | 466 kts | 75° |
| 2026-04-14 04:38 | 0.49211 | 121.20089 | 36930 ft | 466 kts | 75° |
| 2026-04-14 04:39 | 0.50921 | 121.26342 | 36936 ft | 466 kts | 75° |
| 2026-04-14 04:39 | 0.52630 | 121.32585 | 36930 ft | 466 kts | 75° |
| 2026-04-14 04:40 | 0.54342 | 121.38830 | 36930 ft | 466 kts | 75° |
| 2026-04-14 04:41 | 0.56911 | 121.48163 | 36924 ft | 466 kts | 75° |
| 2026-04-14 04:41 | 0.58624 | 121.54418 | 36925 ft | 467 kts | 75° |
| 2026-04-14 04:42 | 0.60339 | 121.60675 | 36926 ft | 467 kts | 75° |
| 2026-04-14 04:42 | 0.62055 | 121.66932 | 36924 ft | 467 kts | 75° |
| 2026-04-14 04:43 | 0.63767 | 121.73188 | 36925 ft | 466 kts | 75° |
| 2026-04-14 04:43 | 0.65479 | 121.79437 | 36930 ft | 466 kts | 75° |
| 2026-04-14 04:44 | 0.67194 | 121.85682 | 36926 ft | 466 kts | 75° |
| 2026-04-14 04:44 | 0.68915 | 121.91920 | 36931 ft | 466 kts | 75° |
| 2026-04-14 04:45 | 0.70611 | 121.98124 | 36924 ft | 466 kts | 75° |
| 2026-04-14 04:45 | 0.72317 | 122.04374 | 36925 ft | 466 kts | 75° |
| 2026-04-14 04:46 | 0.74031 | 122.10610 | 36930 ft | 465 kts | 75° |
| 2026-04-14 04:46 | 0.75740 | 122.16844 | 36929 ft | 465 kts | 75° |
| 2026-04-14 04:47 | 0.77445 | 122.23070 | 36924 ft | 464 kts | 75° |
| 2026-04-14 04:47 | 0.79147 | 122.29297 | 36925 ft | 464 kts | 75° |
| 2026-04-14 04:48 | 0.80616 | 122.34656 | 36921 ft | 464 kts | 75° |
| 2026-04-14 04:48 | 0.82327 | 122.40877 | 36917 ft | 464 kts | 75° |
| 2026-04-14 04:49 | 0.84028 | 122.47097 | 36919 ft | 464 kts | 75° |
| 2026-04-14 04:49 | 0.85734 | 122.53317 | 36918 ft | 464 kts | 75° |
| 2026-04-14 04:50 | 0.87439 | 122.59532 | 36912 ft | 463 kts | 75° |
| 2026-04-14 04:50 | 0.89141 | 122.65739 | 36914 ft | 463 kts | 75° |
| 2026-04-14 04:51 | 0.90832 | 122.71902 | 36917 ft | 463 kts | 75° |
| 2026-04-14 04:51 | 0.92535 | 122.78095 | 36911 ft | 462 kts | 75° |
| 2026-04-14 04:52 | 0.94235 | 122.84290 | 36906 ft | 462 kts | 75° |
| 2026-04-14 04:52 | 0.95926 | 122.90482 | 36904 ft | 461 kts | 75° |
| 2026-04-14 04:53 | 0.97621 | 122.96661 | 36911 ft | 461 kts | 75° |
| 2026-04-14 04:53 | 0.99323 | 123.02836 | 36900 ft | 461 kts | 75° |
| 2026-04-14 04:54 | 1.00370 | 123.06659 | 36909 ft | 460 kts | 75° |
| 2026-04-14 04:54 | 1.02061 | 123.12827 | 36901 ft | 460 kts | 75° |
| 2026-04-14 04:55 | 1.03746 | 123.18987 | 36904 ft | 460 kts | 75° |
| 2026-04-14 04:55 | 1.05560 | 123.25112 | 36906 ft | 460 kts | 68° |
| 2026-04-14 04:56 | 1.08847 | 123.30567 | 36902 ft | 461 kts | 52° |
| 2026-04-14 04:56 | 1.12818 | 123.35603 | 36907 ft | 461 kts | 52° |
| 2026-04-14 04:57 | 1.16781 | 123.40647 | 36902 ft | 462 kts | 52° |
| 2026-04-14 04:57 | 1.20742 | 123.45702 | 36902 ft | 462 kts | 52° |
| 2026-04-14 04:58 | 1.24709 | 123.50764 | 36907 ft | 462 kts | 52° |
| 2026-04-14 04:58 | 1.28681 | 123.55828 | 36898 ft | 463 kts | 52° |
| 2026-04-14 04:59 | 1.32567 | 123.60951 | 36897 ft | 463 kts | 60° |
| 2026-04-14 04:59 | 1.33891 | 123.63868 | 36901 ft | 462 kts | 73° |
| 2026-04-14 04:59 | 1.34473 | 123.66693 | 36902 ft | 462 kts | 85° |
| 2026-04-14 04:59 | 1.34420 | 123.69888 | 36894 ft | 461 kts | 99° |
| 2026-04-14 05:00 | 1.33638 | 123.72991 | 36888 ft | 460 kts | 111° |
| 2026-04-14 05:00 | 1.32494 | 123.75970 | 36326 ft | 459 kts | 111° |
| 2026-04-14 05:00 | 1.31354 | 123.78887 | 35554 ft | 461 kts | 112° |
| 2026-04-14 05:00 | 1.30175 | 123.81876 | 34759 ft | 464 kts | 112° |
| 2026-04-14 05:01 | 1.28985 | 123.84882 | 33952 ft | 467 kts | 112° |
| 2026-04-14 05:01 | 1.27786 | 123.87913 | 33016 ft | 471 kts | 112° |
| 2026-04-14 05:01 | 1.26583 | 123.90968 | 32075 ft | 474 kts | 112° |
| 2026-04-14 05:01 | 1.25372 | 123.94052 | 31121 ft | 478 kts | 112° |
| 2026-04-14 05:02 | 1.24156 | 123.97146 | 30363 ft | 477 kts | 112° |
| 2026-04-14 05:02 | 1.22950 | 124.00220 | 29689 ft | 474 kts | 112° |
| 2026-04-14 05:02 | 1.21756 | 124.03274 | 28982 ft | 470 kts | 112° |
| 2026-04-14 05:02 | 1.20573 | 124.06299 | 28335 ft | 465 kts | 112° |
| 2026-04-14 05:03 | 1.19401 | 124.09290 | 27713 ft | 460 kts | 112° |
| 2026-04-14 05:03 | 1.18238 | 124.12253 | 27126 ft | 456 kts | 112° |
| 2026-04-14 05:03 | 1.17086 | 124.15185 | 26534 ft | 451 kts | 112° |
| 2026-04-14 05:03 | 1.15950 | 124.18095 | 25962 ft | 447 kts | 111° |
| 2026-04-14 05:04 | 1.15216 | 124.21093 | 25425 ft | 444 kts | 97° |
| 2026-04-14 05:04 | 1.15240 | 124.24163 | 24878 ft | 441 kts | 82° |
| 2026-04-14 05:04 | 1.15876 | 124.27145 | 24323 ft | 438 kts | 77° |
| 2026-04-14 05:04 | 1.16575 | 124.30094 | 23795 ft | 435 kts | 77° |
| 2026-04-14 05:05 | 1.17266 | 124.33022 | 23243 ft | 431 kts | 77° |
| 2026-04-14 05:05 | 1.17949 | 124.35928 | 22660 ft | 428 kts | 77° |
| 2026-04-14 05:05 | 1.18627 | 124.38813 | 22111 ft | 425 kts | 76° |
| 2026-04-14 05:05 | 1.19302 | 124.41673 | 21585 ft | 422 kts | 76° |
| 2026-04-14 05:06 | 1.19973 | 124.44515 | 21073 ft | 419 kts | 76° |
| 2026-04-14 05:06 | 1.20640 | 124.47341 | 20570 ft | 416 kts | 76° |
| 2026-04-14 05:06 | 1.21297 | 124.50129 | 20320 ft | 406 kts | 76° |
| 2026-04-14 05:06 | 1.21930 | 124.52836 | 20198 ft | 393 kts | 76° |
| 2026-04-14 05:07 | 1.22541 | 124.55455 | 20083 ft | 381 kts | 77° |
| 2026-04-14 05:07 | 1.22788 | 124.58034 | 19953 ft | 368 kts | 94° |
| 2026-04-14 05:07 | 1.22295 | 124.60492 | 19846 ft | 356 kts | 112° |
| 2026-04-14 05:07 | 1.21153 | 124.62627 | 19728 ft | 341 kts | 129° |
| 2026-04-14 05:08 | 1.19554 | 124.64266 | 19605 ft | 319 kts | 146° |
| 2026-04-14 05:08 | 1.17710 | 124.65357 | 19467 ft | 299 kts | 160° |
| 2026-04-14 05:08 | 1.15760 | 124.65931 | 19133 ft | 288 kts | 175° |
| 2026-04-14 05:08 | 1.13793 | 124.66018 | 18708 ft | 280 kts | 189° |
| 2026-04-14 05:09 | 1.11904 | 124.65662 | 18277 ft | 274 kts | 202° |
| 2026-04-14 05:09 | 1.10177 | 124.64907 | 17783 ft | 269 kts | 214° |
| 2026-04-14 05:09 | 1.08683 | 124.63819 | 17217 ft | 266 kts | 225° |
| 2026-04-14 05:09 | 1.07430 | 124.62400 | 16293 ft | 279 kts | 238° |
| 2026-04-14 05:10 | 1.06504 | 124.60649 | 15359 ft | 292 kts | 250° |
| 2026-04-14 05:10 | 1.05857 | 124.58698 | 14609 ft | 298 kts | 255° |
| 2026-04-14 05:10 | 1.05506 | 124.57373 | 14220 ft | 298 kts | 257° |
| 2026-04-14 05:10 | 1.04888 | 124.54712 | 13460 ft | 295 kts | 258° |
| 2026-04-14 05:11 | 1.04447 | 124.52716 | 12861 ft | 293 kts | 258° |
| 2026-04-14 05:11 | 1.04004 | 124.50731 | 12283 ft | 295 kts | 258° |
| 2026-04-14 05:11 | 1.03560 | 124.48705 | 11693 ft | 302 kts | 262° |
| 2026-04-14 05:11 | 1.03465 | 124.46598 | 11118 ft | 306 kts | 275° |
| 2026-04-14 05:12 | 1.03892 | 124.44511 | 10680 ft | 307 kts | 289° |
| 2026-04-14 05:12 | 1.04500 | 124.43206 | 10519 ft | 312 kts | 301° |
| 2026-04-14 05:12 | 1.05978 | 124.41570 | 10291 ft | 330 kts | 322° |
| 2026-04-14 05:12 | 1.08067 | 124.40599 | 10060 ft | 337 kts | 346° |
| 2026-04-14 05:13 | 1.10392 | 124.40576 | 9857 ft | 334 kts | 11° |
| 2026-04-14 05:13 | 1.12476 | 124.41493 | 9736 ft | 325 kts | 34° |
| 2026-04-14 05:13 | 1.13991 | 124.43117 | 9602 ft | 317 kts | 58° |
| 2026-04-14 05:13 | 1.14873 | 124.45098 | 9480 ft | 309 kts | 67° |
| 2026-04-14 05:14 | 1.15656 | 124.47087 | 9362 ft | 306 kts | 68° |
| 2026-04-14 05:14 | 1.16434 | 124.49064 | 9235 ft | 306 kts | 67° |
| 2026-04-14 05:14 | 1.17212 | 124.51041 | 9109 ft | 305 kts | 67° |
| 2026-04-14 05:14 | 1.17987 | 124.53011 | 8985 ft | 304 kts | 67° |
| 2026-04-14 05:15 | 1.18762 | 124.54977 | 8859 ft | 303 kts | 67° |
| 2026-04-14 05:15 | 1.19534 | 124.56933 | 8734 ft | 302 kts | 67° |
| 2026-04-14 05:15 | 1.20303 | 124.58885 | 8614 ft | 302 kts | 67° |
| 2026-04-14 05:15 | 1.21072 | 124.60837 | 8491 ft | 301 kts | 67° |
| 2026-04-14 05:16 | 1.21841 | 124.62779 | 8369 ft | 300 kts | 67° |
| 2026-04-14 05:16 | 1.22607 | 124.64715 | 8246 ft | 300 kts | 67° |
| 2026-04-14 05:16 | 1.23371 | 124.66655 | 8125 ft | 299 kts | 67° |
| 2026-04-14 05:16 | 1.24133 | 124.68587 | 8009 ft | 299 kts | 67° |
| 2026-04-14 05:17 | 1.24894 | 124.70512 | 7941 ft | 297 kts | 67° |
| 2026-04-14 05:17 | 1.25655 | 124.72443 | 7973 ft | 299 kts | 67° |
| 2026-04-14 05:17 | 1.26368 | 124.74400 | 7976 ft | 301 kts | 74° |
| 2026-04-14 05:17 | 1.26663 | 124.76476 | 7723 ft | 305 kts | 88° |
| 2026-04-14 05:18 | 1.26709 | 124.78607 | 7310 ft | 305 kts | 89° |
| 2026-04-14 05:18 | 1.26734 | 124.80726 | 6712 ft | 309 kts | 89° |
| 2026-04-14 05:18 | 1.26755 | 124.82834 | 6392 ft | 297 kts | 89° |
| 2026-04-14 05:18 | 1.26776 | 124.84861 | 6226 ft | 287 kts | 88° |
| 2026-04-14 05:19 | 1.26801 | 124.86818 | 6090 ft | 275 kts | 88° |
| 2026-04-14 05:19 | 1.26831 | 124.88660 | 5965 ft | 263 kts | 87° |
| 2026-04-14 05:19 | 1.27255 | 124.90353 | 5852 ft | 245 kts | 56° |
| 2026-04-14 05:19 | 1.28448 | 124.91508 | 5632 ft | 237 kts | 22° |
| 2026-04-14 05:20 | 1.30004 | 124.91820 | 5274 ft | 231 kts | 359° |
| 2026-04-14 05:20 | 1.31615 | 124.91867 | 4945 ft | 232 kts | 357° |
| 2026-04-14 05:20 | 1.33232 | 124.91914 | 4624 ft | 233 kts | 356° |
| 2026-04-14 05:20 | 1.34863 | 124.91967 | 4281 ft | 235 kts | 358° |
| 2026-04-14 05:21 | 1.36494 | 124.92022 | 3953 ft | 233 kts | 360° |
| 2026-04-14 05:21 | 1.38103 | 124.92076 | 3631 ft | 227 kts | 359° |
| 2026-04-14 05:21 | 1.39644 | 124.92128 | 3318 ft | 216 kts | 359° |
| 2026-04-14 05:21 | 1.41108 | 124.92177 | 3026 ft | 205 kts | 359° |
| 2026-04-14 05:22 | 1.42508 | 124.92223 | 2755 ft | 197 kts | 359° |
| 2026-04-14 05:22 | 1.43838 | 124.92267 | 2498 ft | 186 kts | 359° |
| 2026-04-14 05:22 | 1.45104 | 124.92309 | 2225 ft | 179 kts | 358° |
| 2026-04-14 05:22 | 1.46320 | 124.92350 | 1968 ft | 171 kts | 358° |
| 2026-04-14 05:23 | 1.47464 | 124.92388 | 1758 ft | 158 kts | 358° |
| 2026-04-14 05:23 | 1.48531 | 124.92424 | 1520 ft | 150 kts | 359° |
| 2026-04-14 05:23 | 1.49558 | 124.92457 | 1302 ft | 147 kts | 1° |
| 2026-04-14 05:23 | 1.50573 | 124.92491 | 1083 ft | 144 kts | 0° |
| 2026-04-14 05:24 | 1.51562 | 124.92523 | 870 ft | 142 kts | 0° |
| 2026-04-14 05:24 | 1.52549 | 124.92552 | 639 ft | 140 kts | 0° |
| 2026-04-14 05:24 | 1.53524 | 124.92586 | 409 ft | 141 kts | 359° |
| 2026-04-14 05:24 | 1.54461 | 124.92616 | 338 ft | 109 kts | 2° |
| 2026-04-14 05:25 | 1.54936 | 124.92631 | 338 ft | 44 kts | 1° |
| 2026-04-14 05:25 | 1.55240 | 124.92643 | 337 ft | 42 kts | 1° |
| 2026-04-14 05:25 | 1.55521 | 124.92649 | 337 ft | 38 kts | 2° |
| 2026-04-14 05:25 | 1.55670 | 124.92600 | 336 ft | 13 kts | 266° |
| 2026-04-14 05:26 | 1.55655 | 124.92505 | 335 ft | 14 kts | 238° |
| 2026-04-14 05:26 | 1.55572 | 124.92488 | 336 ft | 12 kts | 182° |
| 2026-04-14 05:26 | 1.55480 | 124.92484 | 336 ft | 15 kts | 182° |
| 2026-04-14 05:26 | 1.55383 | 124.92481 | 336 ft | 13 kts | 181° |
| 2026-04-14 05:27 | 1.55264 | 124.92477 | 336 ft | 22 kts | 181° |
| 2026-04-14 05:27 | 1.55065 | 124.92470 | 336 ft | 31 kts | 182° |
| 2026-04-14 05:27 | 1.54846 | 124.92463 | 336 ft | 32 kts | 182° |
| 2026-04-14 05:27 | 1.54616 | 124.92455 | 335 ft | 34 kts | 181° |
| 2026-04-14 05:28 | 1.54413 | 124.92444 | 336 ft | 19 kts | 201° |
| 2026-04-14 05:28 | 1.54325 | 124.92415 | 336 ft | 12 kts | 184° |
| 2026-04-14 05:28 | 1.54283 | 124.92389 | 335 ft | 7 kts | 291° |
| 2026-04-14 05:28 | 1.54308 | 124.92356 | 334 ft | 5 kts | 311° |
| 2026-04-14 05:29 | 1.54314 | 124.92349 | 333 ft | 1 kts | 310° |
| 2026-04-14 05:29 | 1.54319 | 124.92343 | 333 ft | 1 kts | 310° |
| 2026-04-14 05:29 | 1.54320 | 124.92343 | 336 ft | 0 kts | 310° |